createdAt,value
2022-08-23T00:01:21.230Z,4.63
2022-08-23T00:03:47.892Z,4.30
2022-08-23T00:06:12.870Z,4.55
2022-08-23T00:08:36.905Z,4.70
2022-08-23T00:11:00.843Z,4.32
2022-08-23T00:13:24.723Z,4.15
2022-08-23T00:16:09.879Z,4.53
2022-08-23T00:18:33.492Z,4.13
2022-08-23T00:20:57.201Z,4.43
2022-08-23T00:23:21.209Z,4.47
2022-08-23T00:25:45.428Z,4.70
2022-08-23T00:28:11.442Z,4.43
2022-08-23T00:30:39.098Z,4.32
2022-08-23T00:33:04.159Z,4.72
2022-08-23T00:35:28.653Z,5.05
2022-08-23T00:38:32.322Z,4.90
2022-08-23T00:40:36.045Z,4.55
2022-08-23T00:43:26.112Z,4.55
2022-08-23T00:46:16.547Z,4.70
2022-08-23T00:48:42.355Z,4.45
2022-08-23T00:51:12.892Z,4.55
2022-08-23T00:53:42.172Z,4.80
2022-08-23T00:56:12.214Z,4.30
2022-08-23T00:58:37.543Z,4.35
2022-08-23T01:01:04.472Z,4.60
2022-08-23T01:03:38.821Z,4.50
2022-08-23T01:06:13.068Z,4.20
2022-08-23T01:08:38.387Z,4.70
2022-08-23T01:11:09.643Z,4.45
2022-08-23T01:13:41.047Z,4.28
2022-08-23T01:16:11.553Z,4.35
2022-08-23T01:18:35.714Z,4.40
2022-08-23T01:21:10.767Z,4.53
2022-08-23T01:23:43.239Z,4.50
2022-08-23T01:26:09.079Z,4.60
2022-08-23T01:28:35.092Z,4.70
2022-08-23T01:30:58.873Z,4.40
2022-08-23T01:33:22.879Z,4.40
2022-08-23T01:35:53.527Z,4.25
2022-08-23T01:38:18.163Z,4.13
2022-08-23T01:40:44.927Z,4.20
2022-08-23T01:43:10.111Z,3.65
2022-08-23T01:45:35.127Z,3.53
2022-08-23T01:47:59.257Z,4.05
2022-08-23T01:50:23.704Z,4.40
2022-08-23T01:52:47.594Z,3.70
2022-08-23T01:55:13.858Z,3.70
2022-08-23T01:57:39.079Z,3.40
2022-08-23T02:00:07.875Z,3.60
2022-08-23T02:02:37.432Z,3.30
2022-08-23T02:05:01.319Z,3.63
2022-08-23T02:07:28.905Z,3.40
2022-08-23T02:09:53.265Z,3.08
2022-08-23T02:12:17.583Z,3.53
2022-08-23T02:14:43.723Z,3.38
2022-08-23T02:17:16.171Z,3.17
2022-08-23T02:19:41.216Z,3.60
2022-08-23T02:22:07.471Z,3.38
2022-08-23T02:24:32.235Z,3.40
2022-08-23T02:26:59.506Z,3.00
2022-08-23T02:29:29.726Z,3.55
2022-08-23T02:31:55.683Z,3.63
2022-08-23T02:34:20.694Z,3.15
2022-08-23T02:36:46.096Z,3.22
2022-08-23T02:39:10.931Z,3.58
2022-08-23T02:41:36.178Z,3.50
2022-08-23T02:44:00.468Z,3.65
2022-08-23T02:46:24.920Z,3.85
2022-08-23T02:48:51.047Z,3.00
2022-08-23T02:51:14.745Z,3.42
2022-08-23T02:53:39.303Z,3.83
2022-08-23T02:56:12.951Z,3.58
2022-08-23T02:58:46.586Z,4.05
2022-08-23T03:01:19.270Z,3.88
2022-08-23T03:03:43.507Z,3.92
2022-08-23T03:06:25.487Z,4.25
2022-08-23T03:08:49.916Z,4.30
2022-08-23T03:11:15.684Z,4.68
2022-08-23T03:13:41.637Z,4.47
2022-08-23T03:16:06.125Z,4.78
2022-08-23T03:18:30.030Z,4.72
2022-08-23T03:20:56.623Z,4.93
2022-08-23T03:23:21.930Z,4.95
2022-08-23T03:25:45.975Z,4.97
2022-08-23T03:28:21.483Z,4.70
2022-08-23T03:30:45.634Z,4.85
2022-08-23T03:33:10.314Z,5.13
2022-08-23T03:35:34.309Z,5.38
2022-08-23T03:38:00.695Z,5.05
2022-08-23T03:40:26.671Z,4.78
2022-08-23T03:42:50.691Z,5.15
2022-08-23T03:45:16.598Z,5.50
2022-08-23T03:47:41.024Z,5.50
2022-08-23T03:50:05.689Z,5.10
2022-08-23T03:52:30.527Z,10.10
2022-08-23T03:54:55.124Z,8.13
2022-08-23T03:57:20.327Z,7.65
2022-08-23T03:59:44.159Z,9.45
2022-08-23T04:02:09.115Z,10.93
2022-08-23T04:04:33.511Z,6.18
2022-08-23T04:07:20.795Z,5.88
2022-08-23T04:09:50.913Z,5.40
2022-08-23T04:12:20.450Z,5.07
2022-08-23T04:14:45.578Z,5.63
2022-08-23T04:17:10.473Z,5.40
2022-08-23T04:19:34.380Z,5.50
2022-08-23T04:22:00.976Z,6.20
2022-08-23T04:24:31.747Z,5.80
2022-08-23T04:26:55.576Z,5.22
2022-08-23T04:29:31.446Z,5.65
2022-08-23T04:31:58.255Z,5.18
2022-08-23T04:34:22.060Z,5.53
2022-08-23T04:36:55.218Z,5.65
2022-08-23T04:39:19.476Z,4.97
2022-08-23T04:42:01.276Z,5.60
2022-08-23T04:44:26.543Z,5.43
2022-08-23T04:46:51.008Z,5.07
2022-08-23T04:49:14.788Z,5.47
2022-08-23T04:51:38.627Z,5.63
2022-08-23T04:54:03.158Z,5.10
2022-08-23T04:56:45.592Z,5.65
2022-08-23T04:59:16.791Z,5.70
2022-08-23T05:01:44.243Z,5.45
2022-08-23T05:04:10.775Z,5.60
2022-08-23T05:06:36.391Z,5.15
2022-08-23T05:09:02.312Z,5.68
2022-08-23T05:11:28.111Z,5.93
2022-08-23T05:13:52.186Z,5.25
2022-08-23T05:16:17.883Z,5.25
2022-08-23T05:18:54.313Z,5.22
2022-08-23T05:21:20.251Z,5.38
2022-08-23T05:23:44.557Z,5.25
2022-08-23T05:26:17.272Z,5.18
2022-08-23T05:28:44.580Z,5.38
2022-08-23T05:31:13.069Z,5.32
2022-08-23T05:33:42.841Z,5.03
2022-08-23T05:36:10.419Z,5.00
2022-08-23T05:38:35.104Z,5.47
2022-08-23T05:41:02.136Z,4.53
2022-08-23T05:43:30.706Z,5.28
2022-08-23T05:46:03.729Z,5.03
2022-08-23T05:48:30.293Z,5.20
2022-08-23T05:50:57.675Z,5.22
2022-08-23T05:53:22.800Z,4.80
2022-08-23T05:55:46.882Z,4.72
2022-08-23T05:58:15.230Z,4.65
2022-08-23T06:00:40.722Z,5.18
2022-08-23T06:03:06.083Z,4.97
2022-08-23T06:05:30.785Z,5.47
2022-08-23T06:07:56.255Z,5.25
2022-08-23T06:10:22.946Z,5.28
2022-08-23T06:12:55.547Z,4.97
2022-08-23T06:15:19.543Z,4.90
2022-08-23T06:17:43.295Z,4.32
2022-08-23T06:20:08.739Z,4.45
2022-08-23T06:22:53.386Z,4.78
2022-08-23T06:25:17.247Z,4.70
2022-08-23T06:27:50.315Z,4.38
2022-08-23T06:30:15.141Z,4.70
2022-08-23T06:32:38.819Z,4.60
2022-08-23T06:35:41.651Z,4.47
2022-08-23T06:38:15.099Z,4.63
2022-08-23T06:41:02.790Z,4.47
2022-08-23T06:43:39.252Z,4.30
2022-08-23T06:46:20.077Z,4.57
2022-08-23T06:48:48.699Z,5.15
2022-08-23T06:51:15.207Z,4.60
2022-08-23T06:53:55.029Z,4.32
2022-08-23T06:56:40.007Z,4.30
2022-08-23T06:59:12.256Z,4.38
2022-08-23T07:01:57.753Z,4.45
2022-08-23T07:04:30.183Z,4.78
2022-08-23T07:07:10.749Z,4.90
2022-08-23T07:09:35.485Z,4.43
2022-08-23T07:12:00.788Z,4.70
2022-08-23T07:14:26.914Z,4.45
2022-08-23T07:16:56.185Z,4.20
2022-08-23T07:19:22.839Z,4.40
2022-08-23T07:21:53.164Z,4.70
2022-08-23T07:24:18.722Z,4.60
2022-08-23T07:26:44.527Z,4.28
2022-08-23T07:29:11.467Z,3.97
2022-08-23T07:31:43.979Z,4.13
2022-08-23T07:34:10.385Z,3.90
2022-08-23T07:36:37.684Z,4.07
2022-08-23T07:39:02.137Z,4.10
2022-08-23T07:41:32.909Z,3.80
2022-08-23T07:43:58.233Z,3.75
2022-08-23T07:46:22.014Z,3.72
2022-08-23T07:48:54.213Z,3.72
2022-08-23T07:51:26.757Z,3.75
2022-08-23T07:53:50.521Z,3.13
2022-08-23T07:56:18.687Z,3.30
2022-08-23T07:59:01.486Z,3.75
2022-08-23T08:01:35.304Z,3.90
2022-08-23T08:04:03.627Z,3.55
2022-08-23T08:06:33.988Z,3.70
2022-08-23T08:08:58.738Z,3.30
2022-08-23T08:11:29.705Z,3.40
2022-08-23T08:13:59.052Z,3.45
2022-08-23T08:16:27.969Z,3.40
2022-08-23T08:18:53.248Z,3.40
2022-08-23T08:21:51.357Z,3.20
2022-08-23T08:24:41.416Z,3.33
2022-08-23T08:27:09.397Z,3.35
2022-08-23T08:29:33.520Z,2.90
2022-08-23T08:31:57.573Z,2.95
2022-08-23T08:34:21.451Z,3.40
2022-08-23T08:36:50.217Z,2.92
2022-08-23T08:39:19.864Z,2.70
2022-08-23T08:42:04.619Z,2.78
2022-08-23T08:44:40.087Z,2.60
2022-08-23T08:47:11.923Z,3.00
2022-08-23T08:49:43.436Z,2.60
2022-08-23T08:52:18.670Z,2.67
2022-08-23T08:54:48.037Z,2.58
2022-08-23T08:57:15.718Z,2.60
2022-08-23T08:59:52.251Z,2.80
2022-08-23T09:02:31.883Z,2.55
2022-08-23T09:05:02.646Z,2.63
2022-08-23T09:07:50.968Z,2.60
2022-08-23T09:10:33.683Z,2.33
2022-08-23T09:13:37.244Z,2.65
2022-08-23T09:16:13.354Z,2.20
2022-08-23T09:18:38.468Z,2.35
2022-08-23T09:21:02.993Z,2.42
2022-08-23T09:23:38.325Z,2.30
2022-08-23T09:26:19.370Z,2.22
2022-08-23T09:28:43.539Z,2.20
2022-08-23T09:31:08.462Z,2.50
2022-08-23T09:33:42.032Z,2.47
2022-08-23T09:36:23.939Z,2.90
2022-08-23T09:38:56.607Z,2.03
2022-08-23T09:41:27.760Z,2.60
2022-08-23T09:43:55.729Z,2.38
2022-08-23T09:46:28.271Z,2.50
2022-08-23T09:48:55.229Z,2.33
2022-08-23T09:51:30.328Z,2.80
2022-08-23T09:54:09.447Z,2.47
2022-08-23T09:56:38.809Z,2.40
2022-08-23T09:59:04.388Z,2.38
2022-08-23T10:01:40.142Z,2.20
2022-08-23T10:04:14.810Z,2.60
2022-08-23T10:06:41.039Z,2.20
2022-08-23T10:09:10.130Z,2.35
2022-08-23T10:11:42.673Z,2.15
2022-08-23T10:14:08.440Z,2.15
2022-08-23T10:16:43.768Z,2.17
2022-08-23T10:19:21.205Z,2.00
2022-08-23T10:21:57.440Z,2.13
2022-08-23T10:24:34.614Z,1.92
2022-08-23T10:27:40.051Z,2.17
2022-08-23T10:30:10.310Z,1.60
2022-08-23T10:32:53.630Z,1.60
2022-08-23T10:35:37.091Z,1.90
2022-08-23T10:38:42.145Z,2.08
2022-08-23T10:41:40.056Z,1.55
2022-08-23T10:44:24.835Z,1.70
2022-08-23T10:47:08.867Z,1.70
2022-08-23T10:49:37.819Z,1.67
2022-08-23T10:52:05.238Z,1.55
2022-08-23T10:54:46.043Z,1.52
2022-08-23T10:57:20.755Z,1.77
2022-08-23T10:59:47.021Z,1.90
2022-08-23T11:02:23.949Z,1.90
2022-08-23T11:05:06.994Z,1.80
2022-08-23T11:07:35.338Z,1.80
2022-08-23T11:10:17.423Z,1.92
2022-08-23T11:12:58.996Z,2.10
2022-08-23T11:15:34.262Z,2.00
2022-08-23T11:18:04.196Z,1.58
2022-08-23T11:21:34.148Z,1.63
2022-08-23T11:24:39.025Z,1.58
2022-08-23T11:27:07.692Z,1.92
2022-08-23T11:29:43.416Z,2.00
2022-08-23T11:32:40.243Z,1.67
2022-08-23T11:35:32.966Z,2.03
2022-08-23T11:38:04.317Z,2.10
2022-08-23T11:41:22.747Z,1.73
2022-08-23T11:43:49.666Z,1.77
2022-08-23T11:46:36.089Z,1.80
2022-08-23T11:49:55.682Z,1.67
2022-08-23T11:52:51.183Z,1.85
2022-08-23T11:55:52.802Z,1.70
2022-08-23T11:58:25.063Z,1.77
2022-08-23T12:01:07.642Z,1.60
2022-08-23T12:03:37.126Z,1.77
2022-08-23T12:06:16.740Z,1.60
2022-08-23T12:08:53.804Z,1.83
2022-08-23T12:11:20.215Z,1.50
2022-08-23T12:13:55.549Z,1.50
2022-08-23T12:16:44.322Z,1.60
2022-08-23T12:19:30.509Z,1.48
2022-08-23T12:21:57.905Z,1.77
2022-08-23T12:24:27.805Z,1.60
2022-08-23T12:27:04.781Z,1.80
2022-08-23T12:30:00.008Z,1.60
2022-08-23T12:32:36.559Z,1.30
2022-08-23T12:35:20.086Z,1.30
2022-08-23T12:37:52.232Z,1.48
2022-08-23T12:40:23.996Z,1.40
2022-08-23T12:42:48.120Z,1.50
2022-08-23T12:45:19.446Z,1.63
2022-08-23T12:47:45.444Z,1.40
2022-08-23T12:50:32.953Z,1.58
2022-08-23T12:53:01.271Z,1.60
2022-08-23T12:55:25.221Z,1.50
2022-08-23T12:57:56.531Z,1.67
2022-08-23T13:00:25.491Z,1.83
2022-08-23T13:02:56.893Z,1.70
2022-08-23T13:05:33.943Z,1.92
2022-08-23T13:07:59.540Z,1.70
2022-08-23T13:10:23.644Z,1.67
2022-08-23T13:12:47.523Z,1.60
2022-08-23T13:15:14.215Z,1.70
2022-08-23T13:17:41.071Z,1.60
2022-08-23T13:20:24.422Z,2.00
2022-08-23T13:23:04.110Z,1.58
2022-08-23T13:25:32.705Z,1.67
2022-08-23T13:27:59.606Z,1.80
2022-08-23T13:30:26.667Z,1.88
2022-08-23T13:32:52.151Z,1.67
2022-08-23T13:35:36.629Z,1.90
2022-08-23T13:38:10.834Z,1.67
2022-08-23T13:40:43.778Z,1.65
2022-08-23T13:43:11.867Z,1.80
2022-08-23T13:45:38.084Z,1.70
2022-08-23T13:48:08.883Z,1.52
2022-08-23T13:50:36.783Z,1.90
2022-08-23T13:53:14.386Z,1.73
2022-08-23T13:55:46.219Z,1.90
2022-08-23T13:58:13.397Z,1.50
2022-08-23T14:00:37.876Z,1.70
2022-08-23T14:03:01.700Z,1.75
2022-08-23T14:05:25.546Z,1.65
2022-08-23T14:07:53.004Z,1.60
2022-08-23T14:10:18.313Z,1.70
2022-08-23T14:12:44.958Z,1.60
2022-08-23T14:15:10.110Z,1.50
2022-08-23T14:17:41.709Z,1.63
2022-08-23T14:22:52.960Z,1.80
2022-08-23T14:25:16.896Z,1.70
2022-08-23T14:27:42.567Z,1.40
2022-08-23T14:30:08.495Z,1.70
2022-08-23T14:32:32.398Z,1.60
2022-08-23T14:34:56.075Z,1.77
2022-08-23T14:38:00.439Z,1.98
2022-08-23T14:40:06.898Z,1.77
2022-08-23T14:42:31.830Z,1.60
2022-08-23T14:44:55.531Z,1.50
2022-08-23T14:47:19.515Z,1.55
2022-08-23T14:49:43.323Z,1.77
2022-08-23T14:52:07.323Z,1.70
2022-08-23T14:54:31.928Z,1.55
2022-08-23T14:56:57.080Z,1.50
2022-08-23T14:59:20.880Z,1.45
2022-08-23T15:01:45.148Z,1.90
2022-08-23T15:04:10.043Z,1.75
2022-08-23T15:06:33.792Z,1.40
2022-08-23T15:08:57.567Z,1.60
2022-08-23T15:14:06.903Z,1.40
2022-08-23T15:16:30.955Z,1.55
2022-08-23T15:18:55.015Z,1.38
2022-08-23T15:21:19.511Z,1.80
2022-08-23T15:23:43.400Z,1.65
2022-08-23T15:26:08.199Z,1.90
2022-08-23T15:28:32.209Z,1.73
2022-08-23T15:30:58.059Z,1.67
2022-08-23T15:33:27.164Z,1.60
2022-08-23T15:35:55.548Z,1.38
2022-08-23T15:38:20.598Z,1.70
2022-08-23T15:40:45.215Z,1.92
2022-08-23T15:43:08.924Z,1.60
2022-08-23T15:45:33.859Z,1.73
2022-08-23T15:48:01.243Z,2.10
2022-08-23T15:50:31.061Z,1.90
2022-08-23T15:52:55.244Z,2.08
2022-08-23T15:55:19.756Z,1.65
2022-08-23T15:57:46.839Z,1.77
2022-08-23T16:00:13.005Z,1.88
2022-08-23T16:02:57.347Z,1.55
2022-08-23T16:05:22.243Z,1.50
2022-08-23T16:07:46.423Z,1.70
2022-08-23T16:10:13.003Z,1.63
2022-08-23T16:12:36.723Z,1.52
2022-08-23T16:15:00.443Z,1.85
2022-08-23T16:17:24.275Z,1.90
2022-08-23T16:19:48.964Z,1.67
2022-08-23T16:22:14.790Z,1.90
2022-08-23T16:24:38.531Z,1.88
2022-08-23T16:27:02.183Z,2.20
2022-08-23T16:29:27.346Z,1.75
2022-08-23T16:31:51.915Z,1.98
2022-08-23T16:34:18.415Z,2.00
2022-08-23T16:36:45.562Z,2.00
2022-08-23T16:39:12.831Z,2.00
2022-08-23T16:41:36.776Z,2.08
2022-08-23T16:44:00.727Z,1.63
2022-08-23T16:46:25.845Z,2.17
2022-08-23T16:48:49.940Z,2.00
2022-08-23T16:51:14.138Z,2.35
2022-08-23T16:53:38.508Z,2.22
2022-08-23T16:56:03.699Z,1.75
2022-08-23T16:58:27.512Z,1.75
2022-08-23T17:00:51.553Z,1.80
2022-08-23T17:03:15.610Z,1.70
2022-08-23T17:05:39.350Z,1.85
2022-08-23T17:08:03.472Z,1.67
2022-08-23T17:10:27.524Z,1.90
2022-08-23T17:12:55.584Z,3.22
2022-08-23T17:15:25.075Z,3.60
2022-08-23T17:17:49.104Z,3.53
2022-08-23T17:20:14.638Z,2.72
2022-08-23T17:22:38.640Z,4.32
2022-08-23T17:25:02.276Z,4.05
2022-08-23T17:27:26.231Z,2.50
2022-08-23T17:29:51.667Z,2.60
2022-08-23T17:32:18.451Z,2.47
2022-08-23T17:34:42.082Z,2.70
2022-08-23T17:37:06.431Z,2.88
2022-08-23T17:39:32.273Z,2.95
2022-08-23T17:41:59.638Z,2.65
2022-08-23T17:44:23.697Z,2.95
2022-08-23T17:46:49.243Z,3.00
2022-08-23T17:49:14.246Z,2.40
2022-08-23T17:51:41.051Z,2.78
2022-08-23T17:54:05.023Z,2.70
2022-08-23T17:56:29.079Z,3.10
2022-08-23T17:58:53.010Z,3.00
2022-08-23T18:01:16.826Z,3.17
2022-08-23T18:03:42.501Z,2.70
2022-08-23T18:06:16.835Z,2.97
2022-08-23T18:08:41.139Z,3.20
2022-08-23T18:11:05.023Z,3.40
2022-08-23T18:13:28.762Z,2.90
2022-08-23T18:15:52.664Z,3.30
2022-08-23T18:18:16.472Z,3.17
2022-08-23T18:20:41.544Z,3.63
2022-08-23T18:23:06.011Z,2.80
2022-08-23T18:25:30.111Z,2.90
2022-08-23T18:28:08.537Z,2.90
2022-08-23T18:30:32.442Z,3.50
2022-08-23T18:32:56.396Z,2.97
2022-08-23T18:35:20.239Z,3.10
2022-08-23T18:37:46.108Z,3.20
2022-08-23T18:40:11.896Z,3.08
2022-08-23T18:42:36.038Z,2.80
2022-08-23T18:44:59.747Z,2.95
2022-08-23T18:47:23.356Z,3.15
2022-08-23T18:49:47.014Z,2.95
2022-08-23T18:52:10.782Z,3.50
2022-08-23T18:54:36.546Z,3.30
2022-08-23T18:57:00.655Z,2.97
2022-08-23T18:59:24.520Z,3.20
2022-08-23T19:01:48.532Z,3.05
2022-08-23T19:04:14.416Z,2.95
2022-08-23T19:06:38.833Z,3.65
2022-08-23T19:09:02.564Z,3.03
2022-08-23T19:11:28.234Z,3.33
2022-08-23T19:13:52.217Z,3.15
2022-08-23T19:16:17.125Z,3.65
2022-08-23T19:18:41.211Z,3.40
2022-08-23T19:21:06.475Z,3.55
2022-08-23T19:23:30.211Z,3.67
2022-08-23T19:25:53.907Z,3.92
2022-08-23T19:28:19.991Z,3.92
2022-08-23T19:30:44.267Z,3.65
2022-08-23T19:33:08.131Z,3.72
2022-08-23T19:35:32.108Z,4.40
2022-08-23T19:37:55.855Z,3.75
2022-08-23T19:40:20.373Z,3.80
2022-08-23T19:42:44.160Z,3.72
2022-08-23T19:45:10.981Z,3.78
2022-08-23T19:47:35.035Z,3.90
2022-08-23T19:49:59.912Z,4.43
2022-08-23T19:52:23.627Z,3.80
2022-08-23T19:54:47.667Z,3.63
2022-08-23T19:57:11.379Z,3.90
2022-08-23T19:59:40.278Z,3.83
2022-08-23T20:02:05.795Z,4.20
2022-08-23T20:04:32.261Z,4.28
2022-08-23T20:06:57.631Z,4.30
2022-08-23T20:09:23.416Z,4.20
2022-08-23T20:11:47.409Z,4.13
2022-08-23T20:14:11.688Z,4.40
2022-08-23T20:16:36.652Z,4.05
2022-08-23T20:19:04.039Z,4.28
2022-08-23T20:21:28.586Z,4.25
2022-08-23T20:24:04.173Z,4.93
2022-08-23T20:26:29.099Z,4.90
2022-08-23T20:28:59.670Z,4.15
2022-08-23T20:31:28.201Z,4.60
2022-08-23T20:33:53.137Z,4.32
2022-08-23T20:36:20.356Z,4.28
2022-08-23T20:38:44.114Z,4.38
2022-08-23T20:41:08.504Z,4.03
2022-08-23T20:43:32.811Z,3.88
2022-08-23T20:45:57.451Z,4.47
2022-08-23T20:48:21.414Z,4.40
2022-08-23T20:50:45.155Z,3.63
2022-08-23T20:53:12.819Z,3.95
2022-08-23T20:55:36.544Z,5.00
2022-08-23T20:58:00.841Z,4.30
2022-08-23T21:00:24.683Z,4.40
2022-08-23T21:02:48.529Z,4.38
2022-08-23T21:05:12.398Z,4.63
2022-08-23T21:07:36.837Z,4.50
2022-08-23T21:10:02.188Z,4.50
2022-08-23T21:12:26.001Z,4.65
2022-08-23T21:14:50.595Z,4.60
2022-08-23T21:17:14.412Z,4.97
2022-08-23T21:19:38.257Z,4.72
2022-08-23T21:22:02.019Z,4.55
2022-08-23T21:24:26.307Z,5.03
2022-08-23T21:26:52.032Z,4.53
2022-08-23T21:29:15.958Z,4.72
2022-08-23T21:31:40.614Z,4.70
2022-08-23T21:34:04.570Z,4.80
2022-08-23T21:36:29.146Z,4.55
2022-08-23T21:38:52.870Z,4.65
2022-08-23T21:41:34.980Z,5.05
2022-08-23T21:44:00.131Z,4.88
2022-08-23T21:46:24.517Z,4.88
2022-08-23T21:48:48.259Z,5.07
2022-08-23T21:51:11.862Z,4.90
2022-08-23T21:53:35.559Z,4.78
2022-08-23T21:55:59.126Z,5.28
2022-08-23T21:58:22.919Z,5.60
2022-08-23T22:00:47.978Z,5.75
2022-08-23T22:03:12.034Z,6.18
2022-08-23T22:05:40.875Z,5.38
2022-08-23T22:08:05.103Z,5.45
2022-08-23T22:10:28.791Z,5.80
2022-08-23T22:12:52.827Z,5.95
2022-08-23T22:15:17.556Z,5.45
2022-08-23T22:17:42.644Z,5.60
2022-08-23T22:20:08.699Z,4.88
2022-08-23T22:22:33.282Z,6.25
2022-08-23T22:24:57.740Z,6.13
2022-08-23T22:27:22.339Z,5.40
2022-08-23T22:29:46.780Z,5.07
2022-08-23T22:32:10.529Z,5.95
2022-08-23T22:34:35.783Z,5.35
2022-08-23T22:36:59.691Z,5.30
2022-08-23T22:39:25.282Z,5.28
2022-08-23T22:41:48.986Z,6.10
2022-08-23T22:44:12.644Z,6.57
2022-08-23T22:46:37.044Z,6.28
2022-08-23T22:49:01.165Z,6.15
2022-08-23T22:51:28.851Z,5.55
2022-08-23T22:53:56.028Z,6.10
2022-08-23T22:56:22.933Z,5.35
2022-08-23T22:58:47.774Z,5.22
2022-08-23T23:01:20.931Z,6.05
2022-08-23T23:03:44.906Z,5.80
2022-08-23T23:06:08.655Z,6.05
2022-08-23T23:08:33.703Z,6.03
2022-08-23T23:11:00.171Z,6.20
2022-08-23T23:13:25.455Z,5.43
2022-08-23T23:15:50.184Z,5.82
2022-08-23T23:18:13.948Z,5.85
2022-08-23T23:20:40.281Z,6.15
2022-08-23T23:23:03.979Z,5.28
2022-08-23T23:25:29.063Z,5.60
2022-08-23T23:27:55.409Z,5.35
2022-08-23T23:30:22.872Z,4.82
2022-08-23T23:32:46.619Z,5.35
2022-08-23T23:35:11.453Z,5.38
2022-08-23T23:37:35.219Z,5.53
2022-08-23T23:39:59.230Z,6.13
2022-08-23T23:42:24.299Z,5.95
2022-08-23T23:44:48.047Z,5.47
2022-08-23T23:47:11.815Z,5.65
2022-08-23T23:49:35.551Z,6.03
2022-08-23T23:51:59.138Z,6.05
2022-08-23T23:54:22.899Z,6.35
2022-08-23T23:56:48.224Z,5.32
2022-08-23T23:59:13.414Z,4.95
